< Typhoon 198618 1986 Season Typhoon 198620 >
Typhoon 198619 (DOM)
General InformationTrack Information on Google MapsDetailed Wind InformationList of All Images || Disaster Info.ResourceGoogle EarthGE AnimationAtom FeedGeoJSON
Detalied Best Track (Time Zone = UTC)
Year Month Day Hour Lat. Long. Pressure (hPa) Wind (kt) Class Image Chart
1986 10 5 12 15.5 122.0 1008 0 2 Image Chart
1986 10 5 18 15.3 121.5 1006 0 2 Image Chart
1986 10 6 00 15.0 121.0 1006 0 2 Image Chart
1986 10 6 06 14.8 120.5 1006 0 2 Image Chart
1986 10 6 12 14.5 120.0 1006 0 2 Image Chart
1986 10 6 18 14.3 119.5 1006 0 2 Image Chart
1986 10 7 00 14.0 119.0 1004 0 2 Image Chart
1986 10 7 06 13.8 118.5 1004 0 2 Image Chart
1986 10 7 12 13.7 118.0 1004 0 2 Image Chart
1986 10 7 18 13.7 117.4 1004 0 2 Image Chart
1986 10 8 00 13.8 116.8 1004 0 2 Image Chart
1986 10 8 06 13.8 116.2 1002 0 2 Image Chart
1986 10 8 12 14.4 115.8 1000 0 2 Image Chart
1986 10 8 18 15.0 115.3 1000 0 2 Image Chart
1986 10 9 00 15.5 115.0 998 40 3 Image Chart
1986 10 9 06 16.0 114.2 996 40 3 Image Chart
1986 10 9 12 16.3 113.5 996 40 3 Image Chart
1986 10 9 18 16.6 112.6 996 40 3 Image Chart
1986 10 10 00 16.8 111.8 998 40 3 Image Chart
1986 10 10 06 16.9 110.9 998 40 3 Image Chart
1986 10 10 12 17.0 110.0 998 40 3 Image Chart
1986 10 10 18 17.2 109.2 998 40 3 Image Chart
1986 10 11 00 17.3 108.4 998 40 3 Image Chart
1986 10 11 06 17.4 107.6 1000 40 3 Image Chart
1986 10 11 12 17.5 106.8 1000 35 3 Image Chart
1986 10 11 18 17.0 106.0 1004 0 2 Image Chart
1986 10 12 00 17.0 105.0 1008 0 2 Image Chart
Japan Meteorological Agency Best Track Data | Correction Date : 1992-10-21
< Typhoon 198618 1986 Season Typhoon 198620 >

Help